BVI12KE EIDW-LROP
Flight info
| Callsign | BVI12KE |
|---|---|
| Flight time | N/A |
| Altitude | 37000 |
| Route | ENDEQ1E ENDEQ Q36 ALAVA Z195 MALUD UL975 WAL M16 DOLAS L603 LAMSO DCT KUMER/N0489F390 DCT OMELO DCT ODNEM DCT ERGOM DCT LAMIT DCT TOSVI |
| Aircraft | B744/H-SDE3FGHIM1M2RWXY/LB1 |
Departure
| Time | 2026-05-05 13:38 |
|---|---|
| Airport | Dublin Airport (EIDW) |
Arrival
| Time | N/A |
|---|---|
| Airport | Bucharest Henri Coandă International Airport (LROP) |
| Time | Latitude | Longitude | Altitude | Speed | Heading |
|---|---|---|---|---|---|
| 2026-05-05 12:10 | 53.43120 | -6.24980 | 255 ft | 0 kts | 185° |
| 2026-05-05 13:29 | 53.43127 | -6.24979 | 255 ft | 2 kts | 186° |
| 2026-05-05 13:29 | 53.43147 | -6.24975 | 255 ft | 3 kts | 191° |
| 2026-05-05 13:29 | 53.43166 | -6.24968 | 255 ft | 3 kts | 202° |
| 2026-05-05 13:30 | 53.43182 | -6.24954 | 255 ft | 3 kts | 224° |
| 2026-05-05 13:30 | 53.43192 | -6.24938 | 255 ft | 3 kts | 259° |
| 2026-05-05 13:30 | 53.43193 | -6.24926 | 255 ft | 0 kts | 275° |
| 2026-05-05 13:35 | 53.43194 | -6.24945 | 255 ft | 8 kts | 275° |
| 2026-05-05 13:35 | 53.43195 | -6.24968 | 255 ft | 2 kts | 275° |
| 2026-05-05 13:35 | 53.43196 | -6.24977 | 255 ft | 0 kts | 275° |
| 2026-05-05 13:36 | 53.43196 | -6.24978 | 255 ft | 0 kts | 275° |
| 2026-05-05 13:37 | 53.42240 | -6.28964 | 255 ft | 0 kts | 95° |
| 2026-05-05 13:37 | 53.42238 | -6.28932 | 255 ft | 14 kts | 95° |
| 2026-05-05 13:38 | 53.42214 | -6.28408 | 255 ft | 78 kts | 93° |
| 2026-05-05 13:38 | 53.42154 | -6.27137 | 255 ft | 139 kts | 95° |
| 2026-05-05 13:38 | 53.42039 | -6.25290 | 460 ft | 168 kts | 96° |
| 2026-05-05 13:38 | 53.41893 | -6.23416 | 1257 ft | 159 kts | 94° |
| 2026-05-05 13:39 | 53.41798 | -6.21506 | 1731 ft | 169 kts | 92° |
| 2026-05-05 13:39 | 53.41713 | -6.19487 | 1971 ft | 180 kts | 93° |
| 2026-05-05 13:39 | 53.41607 | -6.17311 | 2097 ft | 199 kts | 93° |
| 2026-05-05 13:39 | 53.41477 | -6.14900 | 2265 ft | 217 kts | 93° |
| 2026-05-05 13:40 | 53.41327 | -6.12253 | 2444 ft | 240 kts | 94° |
| 2026-05-05 13:40 | 53.41160 | -6.09331 | 2661 ft | 263 kts | 94° |
| 2026-05-05 13:40 | 53.40983 | -6.06233 | 3270 ft | 270 kts | 94° |
| 2026-05-05 13:40 | 53.40863 | -6.03080 | 3939 ft | 273 kts | 88° |
| 2026-05-05 13:41 | 53.40966 | -5.99890 | 4626 ft | 275 kts | 83° |
| 2026-05-05 13:41 | 53.41209 | -5.96691 | 5287 ft | 279 kts | 79° |
| 2026-05-05 13:41 | 53.41509 | -5.93469 | 5955 ft | 281 kts | 79° |
| 2026-05-05 13:41 | 53.41781 | -5.90256 | 6603 ft | 284 kts | 80° |
| 2026-05-05 13:42 | 53.42040 | -5.86956 | 7231 ft | 287 kts | 81° |
| 2026-05-05 13:42 | 53.42299 | -5.83622 | 7845 ft | 291 kts | 81° |
| 2026-05-05 13:42 | 53.42558 | -5.80244 | 8459 ft | 294 kts | 81° |
| 2026-05-05 13:42 | 53.42806 | -5.76869 | 9040 ft | 297 kts | 81° |
| 2026-05-05 13:43 | 53.43048 | -5.73409 | 9600 ft | 302 kts | 81° |
| 2026-05-05 13:43 | 53.43285 | -5.69894 | 10167 ft | 305 kts | 82° |
| 2026-05-05 13:43 | 53.43526 | -5.66273 | 10452 ft | 321 kts | 82° |
| 2026-05-05 13:43 | 53.43777 | -5.62476 | 10823 ft | 331 kts | 82° |
| 2026-05-05 13:44 | 53.44031 | -5.58633 | 11308 ft | 339 kts | 82° |
| 2026-05-05 13:44 | 53.44294 | -5.54664 | 11821 ft | 345 kts | 82° |
| 2026-05-05 13:44 | 53.44538 | -5.50641 | 11975 ft | 349 kts | 85° |
| 2026-05-05 13:44 | 53.44597 | -5.46498 | 12062 ft | 365 kts | 89° |
| 2026-05-05 13:45 | 53.44509 | -5.42133 | 11972 ft | 380 kts | 92° |
| 2026-05-05 13:45 | 53.44339 | -5.37588 | 11604 ft | 402 kts | 92° |
| 2026-05-05 13:45 | 53.44172 | -5.32775 | 11490 ft | 425 kts | 92° |
| 2026-05-05 13:45 | 53.44019 | -5.27708 | 11503 ft | 444 kts | 92° |
| 2026-05-05 13:46 | 53.43870 | -5.22598 | 12068 ft | 427 kts | 92° |
| 2026-05-05 13:46 | 53.43729 | -5.17702 | 11910 ft | 416 kts | 92° |
| 2026-05-05 13:46 | 53.43603 | -5.12933 | 11307 ft | 413 kts | 91° |
| 2026-05-05 13:46 | 53.43475 | -5.08129 | 10639 ft | 411 kts | 91° |
| 2026-05-05 13:47 | 53.43334 | -5.03354 | 10002 ft | 409 kts | 92° |
| 2026-05-05 13:47 | 53.43188 | -4.98614 | 9391 ft | 405 kts | 92° |
| 2026-05-05 13:47 | 53.43042 | -4.93912 | 8797 ft | 402 kts | 91° |
| 2026-05-05 13:47 | 53.42899 | -4.89267 | 8430 ft | 398 kts | 91° |
| 2026-05-05 13:48 | 53.42752 | -4.84612 | 8284 ft | 402 kts | 92° |
| 2026-05-05 13:48 | 53.42590 | -4.79941 | 8205 ft | 398 kts | 92° |
| 2026-05-05 13:48 | 53.42428 | -4.75399 | 8141 ft | 381 kts | 92° |
| 2026-05-05 13:48 | 53.42271 | -4.71072 | 8084 ft | 364 kts | 92° |
| 2026-05-05 13:49 | 53.42122 | -4.66999 | 8077 ft | 347 kts | 92° |
| 2026-05-05 13:49 | 53.41976 | -4.63063 | 8074 ft | 330 kts | 92° |
| 2026-05-05 13:49 | 53.41837 | -4.59320 | 8066 ft | 314 kts | 92° |
| 2026-05-05 13:49 | 53.41704 | -4.55770 | 8068 ft | 297 kts | 92° |
| 2026-05-05 13:50 | 53.41545 | -4.52412 | 8070 ft | 285 kts | 97° |
| 2026-05-05 13:50 | 53.40988 | -4.49260 | 8073 ft | 280 kts | 112° |
| 2026-05-05 13:50 | 53.39971 | -4.46492 | 8067 ft | 281 kts | 127° |
| 2026-05-05 13:50 | 53.38562 | -4.44215 | 7853 ft | 282 kts | 141° |
| 2026-05-05 13:51 | 53.36887 | -4.42622 | 7481 ft | 282 kts | 156° |
| 2026-05-05 13:51 | 53.35001 | -4.41777 | 7095 ft | 281 kts | 171° |
| 2026-05-05 13:51 | 53.33053 | -4.41760 | 6716 ft | 280 kts | 186° |
| 2026-05-05 13:51 | 53.31169 | -4.42564 | 6301 ft | 280 kts | 201° |
| 2026-05-05 13:52 | 53.29487 | -4.44136 | 5970 ft | 275 kts | 216° |
| 2026-05-05 13:52 | 53.28125 | -4.46343 | 5617 ft | 272 kts | 232° |
| 2026-05-05 13:52 | 53.27167 | -4.49031 | 5234 ft | 269 kts | 247° |
| 2026-05-05 13:52 | 53.26677 | -4.51952 | 4877 ft | 266 kts | 262° |
| 2026-05-05 13:53 | 53.26602 | -4.55014 | 4536 ft | 262 kts | 272° |
| 2026-05-05 13:53 | 53.26695 | -4.58006 | 4179 ft | 261 kts | 275° |
| 2026-05-05 13:53 | 53.26827 | -4.61011 | 4099 ft | 260 kts | 276° |
| 2026-05-05 13:53 | 53.26963 | -4.64038 | 4031 ft | 261 kts | 276° |
| 2026-05-05 13:54 | 53.27095 | -4.67056 | 3999 ft | 260 kts | 276° |
| 2026-05-05 13:54 | 53.27225 | -4.70066 | 3999 ft | 260 kts | 276° |
| 2026-05-05 13:54 | 53.27356 | -4.73085 | 4000 ft | 261 kts | 276° |
| 2026-05-05 13:54 | 53.27493 | -4.76104 | 3999 ft | 261 kts | 277° |
| 2026-05-05 13:55 | 53.27693 | -4.79114 | 3999 ft | 261 kts | 279° |
| 2026-05-05 13:55 | 53.27920 | -4.82115 | 3999 ft | 260 kts | 279° |
| 2026-05-05 13:55 | 53.28144 | -4.85117 | 3999 ft | 260 kts | 279° |
| 2026-05-05 13:55 | 53.28365 | -4.88081 | 3999 ft | 260 kts | 279° |
| 2026-05-05 13:56 | 53.28588 | -4.91084 | 3998 ft | 260 kts | 279° |
| 2026-05-05 13:56 | 53.28811 | -4.94086 | 3998 ft | 260 kts | 279° |
| 2026-05-05 13:56 | 53.29033 | -4.97086 | 3998 ft | 261 kts | 279° |
| 2026-05-05 13:56 | 53.29255 | -5.00091 | 3997 ft | 260 kts | 279° |
| 2026-05-05 13:57 | 53.29477 | -5.03096 | 3997 ft | 260 kts | 279° |
| 2026-05-05 13:57 | 53.29699 | -5.06100 | 3997 ft | 260 kts | 279° |
| 2026-05-05 13:57 | 53.29920 | -5.09110 | 3997 ft | 260 kts | 279° |
| 2026-05-05 13:57 | 53.30141 | -5.12110 | 3997 ft | 261 kts | 279° |
| 2026-05-05 13:58 | 53.30359 | -5.15081 | 3996 ft | 261 kts | 279° |
| 2026-05-05 13:58 | 53.30578 | -5.18088 | 3996 ft | 261 kts | 279° |
| 2026-05-05 13:58 | 53.30798 | -5.21093 | 3996 ft | 261 kts | 279° |
| 2026-05-05 13:58 | 53.31017 | -5.24100 | 3996 ft | 261 kts | 279° |
| 2026-05-05 13:59 | 53.31455 | -5.30117 | 3996 ft | 261 kts | 279° |
| 2026-05-05 13:59 | 53.31673 | -5.33123 | 3998 ft | 261 kts | 279° |
| 2026-05-05 14:00 | 53.32109 | -5.39140 | 3996 ft | 261 kts | 279° |
| 2026-05-05 14:00 | 53.32252 | -5.41132 | 3996 ft | 260 kts | 279° |
| 2026-05-05 14:00 | 53.32540 | -5.45113 | 3997 ft | 260 kts | 279° |
| 2026-05-05 14:00 | 53.32757 | -5.48122 | 3997 ft | 260 kts | 279° |
| 2026-05-05 14:01 | 53.32973 | -5.51131 | 3991 ft | 261 kts | 279° |
| 2026-05-05 14:01 | 53.33189 | -5.54139 | 3990 ft | 260 kts | 279° |
| 2026-05-05 14:01 | 53.33404 | -5.57147 | 3991 ft | 260 kts | 279° |
| 2026-05-05 14:01 | 53.33619 | -5.60155 | 3991 ft | 260 kts | 279° |
| 2026-05-05 14:02 | 53.33834 | -5.63162 | 3992 ft | 260 kts | 279° |
| 2026-05-05 14:02 | 53.34048 | -5.66173 | 3993 ft | 260 kts | 279° |
| 2026-05-05 14:02 | 53.34260 | -5.69144 | 3994 ft | 260 kts | 279° |
| 2026-05-05 14:02 | 53.34470 | -5.72108 | 3994 ft | 260 kts | 279° |
| 2026-05-05 14:03 | 53.34684 | -5.75116 | 3995 ft | 260 kts | 279° |
| 2026-05-05 14:03 | 53.34897 | -5.78126 | 3995 ft | 260 kts | 279° |
| 2026-05-05 14:03 | 53.35109 | -5.81136 | 3996 ft | 261 kts | 278° |
| 2026-05-05 14:03 | 53.35297 | -5.84155 | 3996 ft | 261 kts | 278° |
| 2026-05-05 14:04 | 53.35476 | -5.87169 | 3997 ft | 261 kts | 278° |
| 2026-05-05 14:04 | 53.35656 | -5.90185 | 3998 ft | 260 kts | 278° |
| 2026-05-05 14:04 | 53.35836 | -5.93203 | 3999 ft | 260 kts | 278° |
| 2026-05-05 14:04 | 53.36016 | -5.96222 | 3999 ft | 260 kts | 278° |
| 2026-05-05 14:05 | 53.36193 | -5.99196 | 3999 ft | 260 kts | 278° |
| 2026-05-05 14:05 | 53.36373 | -6.02213 | 3999 ft | 261 kts | 278° |
| 2026-05-05 14:05 | 53.36558 | -6.05237 | 3999 ft | 261 kts | 278° |
| 2026-05-05 14:05 | 53.36742 | -6.08254 | 4002 ft | 261 kts | 278° |
| 2026-05-05 14:06 | 53.36928 | -6.11277 | 3998 ft | 261 kts | 278° |
| 2026-05-05 14:06 | 53.37112 | -6.14301 | 4000 ft | 261 kts | 278° |
| 2026-05-05 14:06 | 53.37296 | -6.17316 | 3996 ft | 261 kts | 277° |
| 2026-05-05 14:06 | 53.37478 | -6.20337 | 4002 ft | 261 kts | 278° |
| 2026-05-05 14:07 | 53.37661 | -6.23361 | 4001 ft | 260 kts | 277° |
| 2026-05-05 14:07 | 53.37833 | -6.26278 | 4007 ft | 242 kts | 277° |
| 2026-05-05 14:07 | 53.37992 | -6.28987 | 3928 ft | 237 kts | 277° |
| 2026-05-05 14:07 | 53.38151 | -6.31706 | 3810 ft | 233 kts | 277° |
| 2026-05-05 14:08 | 53.38305 | -6.34390 | 3682 ft | 230 kts | 277° |
| 2026-05-05 14:08 | 53.38457 | -6.37037 | 3554 ft | 227 kts | 277° |
| 2026-05-05 14:08 | 53.38607 | -6.39675 | 3430 ft | 228 kts | 277° |
| 2026-05-05 14:08 | 53.38759 | -6.42312 | 3310 ft | 227 kts | 278° |
| 2026-05-05 14:09 | 53.38908 | -6.44946 | 3179 ft | 227 kts | 277° |
| 2026-05-05 14:09 | 53.39057 | -6.47578 | 3069 ft | 227 kts | 277° |
| 2026-05-05 14:09 | 53.39206 | -6.50206 | 3007 ft | 226 kts | 277° |
| 2026-05-05 14:09 | 53.39354 | -6.52817 | 3000 ft | 220 kts | 277° |
| 2026-05-05 14:10 | 53.39485 | -6.55246 | 2984 ft | 196 kts | 277° |
| 2026-05-05 14:10 | 53.39598 | -6.57437 | 3001 ft | 186 kts | 277° |
| 2026-05-05 14:10 | 53.39707 | -6.59588 | 3017 ft | 185 kts | 277° |
| 2026-05-05 14:10 | 53.39815 | -6.61762 | 3010 ft | 190 kts | 278° |
| 2026-05-05 14:11 | 53.40161 | -6.63804 | 2994 ft | 185 kts | 305° |
| 2026-05-05 14:11 | 53.41170 | -6.65021 | 2985 ft | 181 kts | 343° |
| 2026-05-05 14:11 | 53.42397 | -6.64833 | 2994 ft | 181 kts | 20° |
| 2026-05-05 14:11 | 53.43272 | -6.63334 | 2999 ft | 186 kts | 57° |
| 2026-05-05 14:12 | 53.43579 | -6.61231 | 3019 ft | 185 kts | 73° |
| 2026-05-05 14:12 | 53.44075 | -6.59286 | 3023 ft | 184 kts | 45° |
| 2026-05-05 14:12 | 53.45009 | -6.57850 | 3003 ft | 182 kts | 49° |
| 2026-05-05 14:12 | 53.45342 | -6.55862 | 2959 ft | 189 kts | 94° |
| 2026-05-05 14:13 | 53.44729 | -6.53913 | 2983 ft | 191 kts | 121° |
| 2026-05-05 14:13 | 53.44016 | -6.52039 | 2976 ft | 191 kts | 110° |
| 2026-05-05 14:13 | 53.43593 | -6.49989 | 2737 ft | 180 kts | 101° |
| 2026-05-05 14:13 | 53.43338 | -6.48009 | 2477 ft | 174 kts | 98° |
| 2026-05-05 14:14 | 53.43170 | -6.46029 | 2233 ft | 169 kts | 95° |
| 2026-05-05 14:14 | 53.43059 | -6.44070 | 2008 ft | 168 kts | 95° |
| 2026-05-05 14:14 | 53.42960 | -6.42123 | 1780 ft | 168 kts | 95° |
| 2026-05-05 14:14 | 53.42856 | -6.40188 | 1561 ft | 165 kts | 95° |
| 2026-05-05 14:15 | 53.42752 | -6.38285 | 1339 ft | 163 kts | 95° |
| 2026-05-05 14:15 | 53.42649 | -6.36394 | 1123 ft | 163 kts | 95° |
| 2026-05-05 14:15 | 53.42545 | -6.34503 | 907 ft | 162 kts | 95° |
| 2026-05-05 14:15 | 53.42441 | -6.32620 | 691 ft | 162 kts | 95° |
| 2026-05-05 14:16 | 53.42339 | -6.30761 | 480 ft | 162 kts | 95° |
| 2026-05-05 14:16 | 53.42235 | -6.28866 | 276 ft | 161 kts | 95° |
| 2026-05-05 14:16 | 53.42140 | -6.27113 | 256 ft | 145 kts | 95° |
| 2026-05-05 14:16 | 53.42067 | -6.25795 | 255 ft | 58 kts | 95° |
| 2026-05-05 14:17 | 53.42057 | -6.25617 | 255 ft | 0 kts | 95° |
| 2026-05-05 14:17 | 53.42057 | -6.25616 | 255 ft | 0 kts | 95° |